createdAt,value
2019-06-27T00:01:40.630Z,16.73
2019-06-27T00:04:32.952Z,16.75
2019-06-27T00:07:17.483Z,16.78
2019-06-27T00:09:51.094Z,16.70
2019-06-27T00:12:25.387Z,16.64
2019-06-27T00:15:17.111Z,16.76
2019-06-27T00:17:50.455Z,16.63
2019-06-27T00:20:24.390Z,16.48
2019-06-27T00:22:58.787Z,16.42
2019-06-27T00:25:32.155Z,16.42
2019-06-27T00:28:18.505Z,16.62
2019-06-27T00:30:52.039Z,16.40
2019-06-27T00:33:27.200Z,16.25
2019-06-27T00:36:01.552Z,15.87
2019-06-27T00:38:35.375Z,15.87
2019-06-27T00:41:09.650Z,15.54
2019-06-27T00:43:43.748Z,15.54
2019-06-27T00:47:06.588Z,15.80
2019-06-27T00:49:40.387Z,15.76
2019-06-27T00:52:14.188Z,15.76
2019-06-27T00:54:48.293Z,15.90
2019-06-27T00:57:21.941Z,15.92
2019-06-27T00:59:56.739Z,15.91
2019-06-27T01:02:30.618Z,15.80
2019-06-27T01:05:04.783Z,15.64
2019-06-27T01:07:51.142Z,15.76
2019-06-27T01:11:30.679Z,15.64
2019-06-27T01:14:04.352Z,15.52
2019-06-27T01:16:51.392Z,15.66
2019-06-27T01:19:25.005Z,15.55
2019-06-27T01:21:58.683Z,15.52
2019-06-27T01:24:32.460Z,15.42
2019-06-27T01:27:07.429Z,15.38
2019-06-27T01:29:41.074Z,15.00
2019-06-27T01:32:15.624Z,15.15
2019-06-27T01:34:49.908Z,15.09
2019-06-27T01:37:36.492Z,15.09
2019-06-27T01:40:22.369Z,15.20
2019-06-27T01:42:55.969Z,15.14
2019-06-27T01:45:35.770Z,15.07
2019-06-27T01:48:09.219Z,14.94
2019-06-27T01:50:42.976Z,14.94
2019-06-27T01:53:16.362Z,14.91
2019-06-27T01:55:49.877Z,14.95
2019-06-27T01:58:36.183Z,14.95
2019-06-27T02:01:09.940Z,14.93
2019-06-27T02:03:43.623Z,14.93
2019-06-27T02:06:36.083Z,15.08
2019-06-27T02:20:45.175Z,15.10
2019-06-27T02:23:31.787Z,15.18
2019-06-27T02:26:06.134Z,14.82
2019-06-27T02:28:40.301Z,14.82
2019-06-27T02:32:36.117Z,14.81
2019-06-27T02:45:43.441Z,14.72
2019-06-27T02:48:17.232Z,14.68
2019-06-27T02:50:50.840Z,14.67
2019-06-27T02:53:25.193Z,14.62
2019-06-27T02:55:58.768Z,14.41
2019-06-27T02:58:33.295Z,14.37
2019-06-27T03:01:07.180Z,14.42
2019-06-27T03:03:40.046Z,14.40
2019-06-27T03:06:13.574Z,14.44
2019-06-27T03:08:47.322Z,14.54
2019-06-27T03:11:20.893Z,14.54
2019-06-27T03:14:06.639Z,14.79
2019-06-27T03:16:40.330Z,14.64
2019-06-27T03:19:14.240Z,14.64
2019-06-27T03:21:48.221Z,14.65
2019-06-27T03:24:36.846Z,14.66
2019-06-27T03:27:13.597Z,14.43
2019-06-27T03:29:47.218Z,14.52
2019-06-27T03:32:21.170Z,14.42
2019-06-27T03:35:07.215Z,14.59
2019-06-27T03:37:53.953Z,14.70
2019-06-27T03:40:31.841Z,14.56
2019-06-27T03:43:05.089Z,14.42
2019-06-27T03:45:38.781Z,14.41
2019-06-27T03:48:12.196Z,14.52
2019-06-27T03:50:45.764Z,14.57
2019-06-27T03:53:19.329Z,14.63
2019-06-27T03:55:53.432Z,14.63
2019-06-27T03:58:27.703Z,14.66
2019-06-27T04:01:14.059Z,14.89
2019-06-27T04:03:58.197Z,15.04
2019-06-27T04:06:30.467Z,14.96
2019-06-27T04:09:04.279Z,14.92
2019-06-27T04:11:38.390Z,14.90
2019-06-27T04:14:24.717Z,15.03
2019-06-27T04:16:58.648Z,15.01
2019-06-27T04:19:44.855Z,15.13
2019-06-27T04:22:19.009Z,14.93
2019-06-27T04:25:04.243Z,14.87
2019-06-27T04:27:37.832Z,14.78
2019-06-27T04:30:11.836Z,14.77
2019-06-27T04:32:58.373Z,14.88
2019-06-27T04:35:44.192Z,15.02
2019-06-27T04:38:17.123Z,14.93
2019-06-27T04:40:50.819Z,14.97
2019-06-27T04:43:24.703Z,15.02
2019-06-27T04:45:58.796Z,14.95
2019-06-27T04:48:44.510Z,14.79
2019-06-27T04:51:28.323Z,15.02
2019-06-27T04:54:15.276Z,15.08
2019-06-27T04:56:48.567Z,15.08
2019-06-27T04:59:22.540Z,15.33
2019-06-27T05:01:56.147Z,15.33
2019-06-27T05:04:29.850Z,15.32
2019-06-27T05:07:13.425Z,15.20
2019-06-27T05:09:47.188Z,15.15
2019-06-27T05:12:35.000Z,15.38
2019-06-27T05:15:08.920Z,15.22
2019-06-27T05:18:00.851Z,15.47
2019-06-27T05:20:53.044Z,15.45
2019-06-27T05:23:27.099Z,15.39
2019-06-27T05:26:20.112Z,15.69
2019-06-27T05:28:54.385Z,15.69
2019-06-27T05:31:28.343Z,15.68
2019-06-27T05:34:19.764Z,15.80
2019-06-27T05:36:53.386Z,15.73
2019-06-27T05:39:27.339Z,15.95
2019-06-27T05:42:11.509Z,16.14
2019-06-27T05:44:56.976Z,15.86
2019-06-27T05:47:30.880Z,15.86
2019-06-27T05:50:04.530Z,15.86
2019-06-27T05:52:39.256Z,15.82
2019-06-27T05:55:12.829Z,15.67
2019-06-27T05:57:52.170Z,15.63
2019-06-27T06:00:31.805Z,15.75
2019-06-27T06:03:10.543Z,15.69
2019-06-27T06:05:47.018Z,15.94
2019-06-27T06:08:35.892Z,16.26
2019-06-27T06:11:10.305Z,16.34
2019-06-27T06:13:44.105Z,16.26
2019-06-27T06:16:17.450Z,16.04
2019-06-27T06:18:50.717Z,16.12
2019-06-27T06:21:33.793Z,16.25
2019-06-27T06:24:07.514Z,16.15
2019-06-27T06:26:41.044Z,16.36
2019-06-27T06:29:14.707Z,16.36
2019-06-27T06:31:49.587Z,16.31
2019-06-27T06:34:24.188Z,16.31
2019-06-27T06:36:58.121Z,16.31
2019-06-27T06:39:31.526Z,16.28
2019-06-27T06:42:05.049Z,16.41
2019-06-27T06:44:38.410Z,16.50
2019-06-27T06:47:21.570Z,16.58
2019-06-27T06:49:54.164Z,16.43
2019-06-27T06:52:39.042Z,16.94
2019-06-27T06:55:12.458Z,16.87
2019-06-27T06:57:45.688Z,16.81
2019-06-27T07:00:20.762Z,16.59
2019-06-27T07:03:05.910Z,16.82
2019-06-27T07:05:39.927Z,16.92
2019-06-27T07:08:22.946Z,16.86
2019-06-27T07:10:56.553Z,16.84
2019-06-27T07:13:30.579Z,16.91
2019-06-27T07:16:04.095Z,16.95
2019-06-27T07:18:38.522Z,16.86
2019-06-27T07:21:12.127Z,17.01
2019-06-27T07:23:45.851Z,16.92
2019-06-27T07:26:22.091Z,16.91
2019-06-27T07:28:55.468Z,16.78
2019-06-27T07:31:39.675Z,16.98
2019-06-27T07:34:27.739Z,17.09
2019-06-27T07:37:01.305Z,17.10
2019-06-27T07:39:34.510Z,17.17
2019-06-27T07:42:08.344Z,17.38
2019-06-27T07:44:41.826Z,17.31
2019-06-27T07:47:15.850Z,17.21
2019-06-27T07:50:00.159Z,17.26
2019-06-27T07:52:37.025Z,17.02
2019-06-27T07:55:11.853Z,16.79
2019-06-27T07:57:55.099Z,16.99
2019-06-27T08:00:29.363Z,16.97
2019-06-27T08:03:13.112Z,17.27
2019-06-27T08:05:58.921Z,17.30
2019-06-27T08:08:33.241Z,17.36
2019-06-27T08:11:06.615Z,17.36
2019-06-27T08:13:52.361Z,17.44
2019-06-27T08:16:25.949Z,17.31
2019-06-27T08:19:00.055Z,17.32
2019-06-27T08:21:43.332Z,17.42
2019-06-27T08:24:17.717Z,17.20
2019-06-27T08:26:51.276Z,17.43
2019-06-27T08:29:25.181Z,17.48
2019-06-27T08:31:58.388Z,17.61
2019-06-27T08:34:32.208Z,17.68
2019-06-27T08:37:05.379Z,17.61
2019-06-27T08:39:51.537Z,17.58
2019-06-27T08:42:44.617Z,17.56
2019-06-27T08:45:18.176Z,17.45
2019-06-27T08:48:01.323Z,17.69
2019-06-27T08:50:37.194Z,17.62
2019-06-27T08:53:09.892Z,17.73
2019-06-27T08:55:43.780Z,17.68
2019-06-27T08:58:17.442Z,17.65
2019-06-27T09:01:01.548Z,17.64
2019-06-27T09:03:45.169Z,17.65
2019-06-27T09:06:29.145Z,17.82
2019-06-27T09:09:12.365Z,17.82
2019-06-27T09:11:45.645Z,17.54
2019-06-27T09:14:19.260Z,17.67
2019-06-27T09:16:52.733Z,17.60
2019-06-27T09:19:26.382Z,17.48
2019-06-27T09:22:00.578Z,17.46
2019-06-27T09:24:44.165Z,17.65
2019-06-27T09:27:17.787Z,17.56
2019-06-27T09:29:52.513Z,17.67
2019-06-27T09:32:26.437Z,17.83
2019-06-27T09:35:01.004Z,17.68
2019-06-27T09:37:34.265Z,17.72
2019-06-27T09:40:08.580Z,17.83
2019-06-27T09:42:42.208Z,17.79
2019-06-27T09:45:16.481Z,17.73
2019-06-27T09:47:59.662Z,17.74
2019-06-27T09:50:32.902Z,17.64
2019-06-27T09:53:06.106Z,17.75
2019-06-27T09:55:39.764Z,17.64
2019-06-27T09:58:12.935Z,17.75
2019-06-27T10:00:56.067Z,17.59
2019-06-27T10:03:29.389Z,17.53
2019-06-27T10:06:03.089Z,17.46
2019-06-27T10:08:38.814Z,17.38
2019-06-27T10:11:22.165Z,17.64
2019-06-27T10:13:56.050Z,17.58
2019-06-27T10:16:30.030Z,17.55
2019-06-27T10:19:14.636Z,17.51
2019-06-27T10:21:49.967Z,17.51
2019-06-27T10:24:23.460Z,17.59
2019-06-27T10:26:56.940Z,17.82
2019-06-27T10:29:30.890Z,17.77
2019-06-27T10:32:04.825Z,17.83
2019-06-27T10:34:50.919Z,17.90
2019-06-27T10:37:26.197Z,17.91
2019-06-27T10:39:59.830Z,18.13
2019-06-27T10:42:33.271Z,18.17
2019-06-27T10:45:06.997Z,18.11
2019-06-27T10:47:42.201Z,18.16
2019-06-27T10:50:16.174Z,18.25
2019-06-27T10:53:08.273Z,18.21
2019-06-27T10:55:58.073Z,17.98
2019-06-27T10:58:47.512Z,17.99
2019-06-27T11:01:36.663Z,18.16
2019-06-27T11:04:26.281Z,18.30
2019-06-27T11:07:03.266Z,18.54
2019-06-27T11:09:37.011Z,18.34
2019-06-27T11:12:26.378Z,18.33
2019-06-27T11:15:16.188Z,18.38
2019-06-27T11:18:05.962Z,18.47
2019-06-27T11:20:55.428Z,18.42
2019-06-27T11:23:29.522Z,18.73
2019-06-27T11:26:03.084Z,18.67
2019-06-27T11:28:36.814Z,18.76
2019-06-27T11:31:11.004Z,18.44
2019-06-27T11:33:46.541Z,18.39
2019-06-27T11:36:20.405Z,18.59
2019-06-27T11:38:53.761Z,18.62
2019-06-27T11:41:27.329Z,18.96
2019-06-27T11:44:01.131Z,18.83
2019-06-27T11:46:34.318Z,18.86
2019-06-27T11:49:20.779Z,19.14
2019-06-27T11:51:54.685Z,19.17
2019-06-27T11:54:46.736Z,19.22
2019-06-27T11:57:20.295Z,19.10
2019-06-27T11:59:54.193Z,19.04
2019-06-27T12:02:28.622Z,19.14
2019-06-27T12:05:02.733Z,19.07
2019-06-27T12:07:37.762Z,19.23
2019-06-27T12:10:11.198Z,19.14
2019-06-27T12:12:44.074Z,19.11
2019-06-27T12:15:27.636Z,19.42
2019-06-27T12:18:19.207Z,19.62
2019-06-27T12:21:06.139Z,19.49
2019-06-27T12:23:40.539Z,19.32
2019-06-27T12:26:13.736Z,19.32
2019-06-27T12:28:58.887Z,19.44
2019-06-27T12:31:41.975Z,19.48
2019-06-27T12:34:15.635Z,19.45
2019-06-27T12:36:51.163Z,19.44
2019-06-27T12:39:34.764Z,19.23
2019-06-27T12:42:08.881Z,19.14
2019-06-27T12:44:54.105Z,19.26
2019-06-27T12:47:42.514Z,19.09
2019-06-27T12:50:16.876Z,18.97
2019-06-27T12:52:50.494Z,19.11
2019-06-27T12:55:23.854Z,19.49
2019-06-27T12:57:57.222Z,19.81
2019-06-27T13:00:30.640Z,19.94
2019-06-27T13:03:04.260Z,20.00
2019-06-27T13:05:48.217Z,20.16
2019-06-27T13:08:21.746Z,20.08
2019-06-27T13:10:54.989Z,19.91
2019-06-27T13:13:30.476Z,19.94
2019-06-27T13:16:15.571Z,19.62
2019-06-27T13:19:06.160Z,19.46
2019-06-27T13:21:45.439Z,19.62
2019-06-27T13:24:22.422Z,19.88
2019-06-27T13:27:01.111Z,19.40
2019-06-27T13:29:41.371Z,19.25
2019-06-27T13:32:18.251Z,19.07
2019-06-27T13:34:57.357Z,18.92
2019-06-27T13:37:36.569Z,19.33
2019-06-27T13:40:26.086Z,19.89
2019-06-27T13:43:07.146Z,19.68
2019-06-27T13:45:56.941Z,19.34
2019-06-27T13:48:46.072Z,19.18
2019-06-27T13:51:23.323Z,19.22
2019-06-27T13:54:01.818Z,19.27
2019-06-27T13:56:39.332Z,19.41
2019-06-27T13:59:27.745Z,19.54
2019-06-27T14:02:07.168Z,19.28
2019-06-27T14:04:57.975Z,19.10
2019-06-27T14:07:36.882Z,19.06
2019-06-27T14:10:15.427Z,19.27
2019-06-27T14:12:55.089Z,19.26
2019-06-27T14:15:33.824Z,19.38
2019-06-27T14:18:11.168Z,19.34
2019-06-27T14:21:02.742Z,19.42
2019-06-27T14:23:41.216Z,19.76
2019-06-27T14:26:21.113Z,19.96
2019-06-27T14:29:01.013Z,19.64
2019-06-27T14:31:39.950Z,19.76
2019-06-27T14:34:17.568Z,19.56
2019-06-27T14:37:03.381Z,19.37
2019-06-27T14:39:41.000Z,18.96
2019-06-27T14:42:18.252Z,18.94
2019-06-27T14:45:10.071Z,19.22
2019-06-27T14:47:50.254Z,19.15
2019-06-27T14:50:28.743Z,18.94
2019-06-27T14:53:06.013Z,18.85
2019-06-27T14:55:43.274Z,18.93
2019-06-27T14:58:24.967Z,18.76
2019-06-27T15:01:20.205Z,18.76
2019-06-27T15:04:01.280Z,18.59
2019-06-27T15:06:36.158Z,18.62
2019-06-27T15:09:22.556Z,18.54
2019-06-27T15:11:56.387Z,18.37
2019-06-27T15:14:42.963Z,18.62
2019-06-27T15:17:16.465Z,18.52
2019-06-27T15:19:50.365Z,18.45
2019-06-27T15:22:23.339Z,18.75
2019-06-27T15:24:56.595Z,18.85
2019-06-27T15:27:31.321Z,18.93
2019-06-27T15:30:14.668Z,18.80
2019-06-27T15:32:48.678Z,18.59
2019-06-27T15:35:50.851Z,18.91
2019-06-27T15:38:20.439Z,18.59
2019-06-27T15:40:55.466Z,18.23
2019-06-27T15:43:40.799Z,18.23
2019-06-27T15:46:14.013Z,18.14
2019-06-27T15:48:47.380Z,18.27
2019-06-27T15:51:21.238Z,18.28
2019-06-27T15:53:55.372Z,18.24
2019-06-27T15:56:38.561Z,18.31
2019-06-27T15:59:12.383Z,18.17
2019-06-27T16:02:03.904Z,18.05
2019-06-27T16:04:37.619Z,17.91
2019-06-27T16:07:30.382Z,17.98
2019-06-27T16:10:03.292Z,17.73
2019-06-27T16:12:36.552Z,17.64
2019-06-27T16:15:10.112Z,17.44
2019-06-27T16:17:43.807Z,17.56
2019-06-27T16:20:19.078Z,17.52
2019-06-27T16:22:52.584Z,17.63
2019-06-27T16:25:27.015Z,17.52
2019-06-27T16:28:00.011Z,17.34
2019-06-27T16:30:35.382Z,17.21
2019-06-27T16:33:22.726Z,17.40
2019-06-27T16:35:59.999Z,17.48
2019-06-27T16:38:39.633Z,17.75
2019-06-27T16:41:16.661Z,17.69
2019-06-27T16:43:55.016Z,17.80
2019-06-27T16:46:32.176Z,17.82
2019-06-27T16:49:08.996Z,17.91
2019-06-27T16:51:45.782Z,17.92
2019-06-27T16:54:20.255Z,17.73
2019-06-27T16:57:06.085Z,17.88
2019-06-27T16:59:44.178Z,17.59
2019-06-27T17:02:36.752Z,17.65
2019-06-27T17:06:01.754Z,17.51
2019-06-27T17:08:39.171Z,17.40
2019-06-27T17:11:16.286Z,17.31
2019-06-27T17:13:54.568Z,17.60
2019-06-27T17:16:29.426Z,17.60
2019-06-27T17:19:03.697Z,17.58
2019-06-27T17:21:37.216Z,17.47
2019-06-27T17:24:10.875Z,17.46
2019-06-27T17:26:44.422Z,17.33
2019-06-27T17:29:18.438Z,17.43
2019-06-27T17:31:49.979Z,17.48
2019-06-27T17:34:23.543Z,17.41
2019-06-27T17:36:58.258Z,17.35
2019-06-27T17:39:30.531Z,17.31
2019-06-27T17:42:03.569Z,17.41
2019-06-27T17:44:49.076Z,17.54
2019-06-27T17:47:23.272Z,17.23
2019-06-27T17:50:10.091Z,17.07
2019-06-27T17:52:53.800Z,16.94
2019-06-27T17:55:39.512Z,16.96
2019-06-27T17:58:13.099Z,16.96
2019-06-27T18:00:46.370Z,17.06
2019-06-27T18:03:20.261Z,17.05
2019-06-27T18:05:53.982Z,16.88
2019-06-27T18:08:27.841Z,16.78
2019-06-27T18:11:01.194Z,16.83
2019-06-27T18:13:34.786Z,16.76
2019-06-27T18:16:08.386Z,16.86
2019-06-27T18:18:42.315Z,16.69
2019-06-27T18:21:15.876Z,16.63
2019-06-27T18:23:49.140Z,16.69
2019-06-27T18:26:23.103Z,16.78
2019-06-27T18:28:57.019Z,16.83
2019-06-27T18:31:40.670Z,16.98
2019-06-27T18:34:14.887Z,16.90
2019-06-27T18:36:48.870Z,16.91
2019-06-27T18:39:22.304Z,16.79
2019-06-27T18:41:55.907Z,16.75
2019-06-27T18:44:29.129Z,16.61
2019-06-27T18:47:03.406Z,16.45
2019-06-27T18:49:37.622Z,16.42
2019-06-27T18:52:20.805Z,16.50
2019-06-27T18:54:55.033Z,16.41
2019-06-27T18:57:40.989Z,16.51
2019-06-27T19:00:15.470Z,16.32
2019-06-27T19:02:48.666Z,16.28
2019-06-27T19:05:22.155Z,16.29
2019-06-27T19:07:55.838Z,16.31
2019-06-27T19:10:29.400Z,16.17
2019-06-27T19:13:03.043Z,16.17
2019-06-27T19:15:36.312Z,16.14
2019-06-27T19:18:28.759Z,16.12
2019-06-27T19:21:06.716Z,16.17
2019-06-27T19:23:51.338Z,16.10
2019-06-27T19:26:24.933Z,16.15
2019-06-27T19:28:58.943Z,16.13
2019-06-27T19:31:44.631Z,16.24
2019-06-27T19:34:31.402Z,16.37
2019-06-27T19:37:05.275Z,16.22
2019-06-27T19:39:38.812Z,16.25
2019-06-27T19:42:12.372Z,16.15
2019-06-27T19:44:46.432Z,16.20
2019-06-27T19:47:20.577Z,16.22
2019-06-27T19:49:53.521Z,16.22
2019-06-27T19:52:26.956Z,16.18
2019-06-27T19:54:59.672Z,16.09
2019-06-27T19:57:46.580Z,16.00
2019-06-27T20:00:32.799Z,16.13
2019-06-27T20:03:19.725Z,16.20
2019-06-27T20:05:52.643Z,16.10
2019-06-27T20:08:25.896Z,15.96
2019-06-27T20:10:59.129Z,15.94
2019-06-27T20:13:43.576Z,16.10
2019-06-27T20:16:16.922Z,15.97
2019-06-27T20:18:51.027Z,15.91
2019-06-27T20:21:24.728Z,15.94
2019-06-27T20:24:08.197Z,16.13
2019-06-27T20:26:41.718Z,16.00
2019-06-27T20:29:15.670Z,16.00
2019-06-27T20:31:49.254Z,16.05
2019-06-27T20:34:22.785Z,16.02
2019-06-27T20:36:57.330Z,15.80
2019-06-27T20:39:31.070Z,15.80
2019-06-27T20:42:04.896Z,15.76
2019-06-27T20:44:38.210Z,15.84
2019-06-27T20:47:11.471Z,15.83
2019-06-27T20:49:45.195Z,15.92
2019-06-27T20:52:18.885Z,15.92
2019-06-27T20:54:52.972Z,15.92
2019-06-27T20:57:26.601Z,15.92
2019-06-27T21:00:00.265Z,15.97
2019-06-27T21:02:34.982Z,15.83
2019-06-27T21:05:09.067Z,15.83
2019-06-27T21:07:42.615Z,15.61
2019-06-27T21:10:16.818Z,15.61
2019-06-27T21:13:01.837Z,15.61
2019-06-27T21:16:33.705Z,15.78
2019-06-27T21:19:07.379Z,15.61
2019-06-27T21:21:40.954Z,15.52
2019-06-27T21:24:15.209Z,15.55
2019-06-27T21:35:30.065Z,15.44
2019-06-27T21:38:04.201Z,15.53
2019-06-27T21:40:37.441Z,15.55
2019-06-27T21:43:11.787Z,15.49
2019-06-27T21:48:31.306Z,15.61
2019-06-27T21:51:04.686Z,15.42
2019-06-27T21:54:06.609Z,15.56
2019-06-27T21:56:41.590Z,15.46
2019-06-27T21:59:15.410Z,15.55
2019-06-27T22:01:49.510Z,15.54
2019-06-27T22:04:35.213Z,15.66
2019-06-27T22:07:28.168Z,15.66
2019-06-27T22:10:02.223Z,15.66
2019-06-27T22:12:53.841Z,15.90
2019-06-27T22:15:27.316Z,15.78
2019-06-27T22:18:01.101Z,15.80
2019-06-27T22:20:34.566Z,15.63
2019-06-27T22:23:07.987Z,15.55
2019-06-27T22:25:41.325Z,15.34
2019-06-27T22:28:14.833Z,15.53
2019-06-27T22:30:51.986Z,15.50
2019-06-27T22:33:25.774Z,15.53
2019-06-27T22:35:59.721Z,15.51
2019-06-27T22:38:50.749Z,15.52
2019-06-27T22:41:42.101Z,15.50
2019-06-27T22:44:33.900Z,15.34
2019-06-27T22:47:44.854Z,15.45
2019-06-27T22:51:04.334Z,15.41
2019-06-27T22:53:45.140Z,15.30
2019-06-27T22:56:18.965Z,15.29
2019-06-27T22:58:52.717Z,15.38
2019-06-27T23:01:26.529Z,15.36
2019-06-27T23:04:00.747Z,15.36
2019-06-27T23:06:49.055Z,15.54
2019-06-27T23:09:35.465Z,15.51
2019-06-27T23:12:21.286Z,15.63
2019-06-27T23:15:06.583Z,15.46
2019-06-27T23:18:31.035Z,15.63
2019-06-27T23:21:05.022Z,15.42
2019-06-27T23:23:38.596Z,15.35
2019-06-27T23:26:11.392Z,15.29
2019-06-27T23:29:43.329Z,15.35
2019-06-27T23:32:18.461Z,15.15
2019-06-27T23:34:51.929Z,15.24
2019-06-27T23:37:25.594Z,15.18
2019-06-27T23:40:12.723Z,15.14
2019-06-27T23:42:33.259Z,15.15
2019-06-27T23:45:25.473Z,15.21
2019-06-27T23:47:59.134Z,15.02
2019-06-27T23:50:32.510Z,14.98
2019-06-27T23:53:06.501Z,14.99
2019-06-27T23:55:39.786Z,14.95
2019-06-27T23:58:13.436Z,14.95
